createdAt,value
2018-06-04T00:02:18.736Z,21.30
2018-06-04T00:04:47.365Z,21.26
2018-06-04T00:07:15.477Z,21.22
2018-06-04T00:09:43.548Z,21.22
2018-06-04T00:12:18.301Z,21.13
2018-06-04T00:14:46.495Z,21.19
2018-06-04T00:17:14.734Z,21.20
2018-06-04T00:19:42.827Z,21.06
2018-06-04T00:22:10.919Z,21.09
2018-06-04T00:24:39.010Z,21.01
2018-06-04T00:27:07.110Z,20.88
2018-06-04T00:29:35.434Z,20.96
2018-06-04T00:32:04.504Z,20.95
2018-06-04T00:34:32.592Z,20.82
2018-06-04T00:37:00.703Z,20.76
2018-06-04T00:39:28.784Z,20.71
2018-06-04T00:41:56.867Z,20.79
2018-06-04T00:44:24.945Z,20.73
2018-06-04T00:46:53.042Z,20.81
2018-06-04T00:49:21.155Z,20.76
2018-06-04T00:51:49.237Z,20.65
2018-06-04T00:54:17.320Z,20.59
2018-06-04T00:56:45.396Z,20.53
2018-06-04T00:59:13.500Z,20.64
2018-06-04T01:01:41.622Z,20.63
2018-06-04T01:04:09.697Z,20.60
2018-06-04T01:06:37.778Z,20.49
2018-06-04T01:09:08.367Z,20.48
2018-06-04T01:11:36.475Z,20.42
2018-06-04T01:14:04.580Z,20.38
2018-06-04T01:16:32.680Z,20.28
2018-06-04T01:19:00.772Z,20.29
2018-06-04T01:21:28.870Z,20.26
2018-06-04T01:23:56.942Z,20.20
2018-06-04T01:26:25.030Z,20.29
2018-06-04T01:28:53.515Z,20.26
2018-06-04T01:31:21.580Z,20.29
2018-06-04T01:33:49.631Z,20.24
2018-06-04T01:36:17.707Z,20.14
2018-06-04T01:38:45.825Z,20.26
2018-06-04T01:41:13.913Z,20.21
2018-06-04T01:43:42.015Z,20.22
2018-06-04T01:46:10.100Z,20.01
2018-06-04T01:48:38.214Z,20.05
2018-06-04T01:51:06.343Z,20.03
2018-06-04T01:53:34.436Z,20.06
2018-06-04T01:56:02.515Z,20.03
2018-06-04T01:58:30.567Z,19.97
2018-06-04T02:00:58.657Z,19.99
2018-06-04T02:03:26.712Z,20.00
2018-06-04T02:05:54.801Z,19.98
2018-06-04T02:08:22.877Z,19.91
2018-06-04T02:10:50.986Z,19.96
2018-06-04T02:13:19.019Z,19.90
2018-06-04T02:15:47.082Z,19.86
2018-06-04T02:18:15.200Z,19.80
2018-06-04T02:20:43.303Z,19.80
2018-06-04T02:23:11.396Z,19.85
2018-06-04T02:25:39.497Z,19.86
2018-06-04T02:28:07.604Z,19.80
2018-06-04T02:30:42.259Z,19.75
2018-06-04T02:33:10.332Z,19.62
2018-06-04T02:35:38.390Z,19.64
2018-06-04T02:38:06.474Z,19.57
2018-06-04T02:40:34.588Z,19.47
2018-06-04T02:43:02.757Z,19.53
2018-06-04T02:45:30.856Z,19.57
2018-06-04T02:47:58.935Z,19.51
2018-06-04T02:50:27.032Z,19.55
2018-06-04T02:52:55.132Z,19.45
2018-06-04T02:55:23.263Z,19.40
2018-06-04T02:57:51.335Z,19.44
2018-06-04T03:00:19.399Z,19.40
2018-06-04T03:02:47.472Z,19.44
2018-06-04T03:05:15.536Z,19.40
2018-06-04T03:07:43.672Z,19.47
2018-06-04T03:10:11.748Z,19.47
2018-06-04T03:12:39.847Z,19.42
2018-06-04T03:15:08.230Z,19.31
2018-06-04T03:17:36.292Z,19.26
2018-06-04T03:20:04.365Z,19.30
2018-06-04T03:22:32.438Z,19.35
2018-06-04T03:25:00.529Z,19.34
2018-06-04T03:27:28.595Z,19.38
2018-06-04T03:29:56.679Z,19.38
2018-06-04T03:32:24.805Z,19.28
2018-06-04T03:34:52.981Z,19.27
2018-06-04T03:37:21.024Z,19.29
2018-06-04T03:39:49.089Z,19.29
2018-06-04T03:42:17.160Z,19.34
2018-06-04T03:44:45.253Z,19.28
2018-06-04T03:47:13.340Z,19.24
2018-06-04T03:49:41.433Z,19.27
2018-06-04T03:52:09.524Z,19.35
2018-06-04T03:54:37.607Z,19.34
2018-06-04T03:57:05.706Z,19.33
2018-06-04T03:59:33.792Z,19.33
2018-06-04T04:02:01.865Z,19.39
2018-06-04T04:04:29.947Z,19.39
2018-06-04T04:06:58.055Z,19.45
2018-06-04T04:09:26.126Z,19.43
2018-06-04T04:11:54.228Z,19.38
2018-06-04T04:14:22.332Z,19.33
2018-06-04T04:19:24.954Z,19.43
2018-06-04T04:21:53.056Z,19.41
2018-06-04T04:24:21.111Z,19.40
2018-06-04T04:26:49.217Z,19.43
2018-06-04T04:29:17.311Z,19.54
2018-06-04T04:31:45.377Z,19.54
2018-06-04T04:34:13.470Z,19.49
2018-06-04T04:36:41.514Z,19.63
2018-06-04T04:39:09.608Z,19.58
2018-06-04T04:41:37.767Z,19.67
2018-06-04T04:44:05.895Z,19.67
2018-06-04T04:46:33.989Z,19.72
2018-06-04T04:49:02.082Z,19.78
2018-06-04T04:51:30.174Z,19.80
2018-06-04T04:53:58.338Z,19.92
2018-06-04T04:56:26.470Z,19.89
2018-06-04T04:58:54.614Z,19.92
2018-06-04T05:01:22.741Z,20.01
2018-06-04T05:03:50.889Z,20.06
2018-06-04T05:06:19.155Z,20.10
2018-06-04T05:08:47.259Z,20.20
2018-06-04T05:11:15.365Z,20.28
2018-06-04T05:13:43.509Z,20.29
2018-06-04T05:16:11.684Z,20.27
2018-06-04T05:18:39.792Z,20.46
2018-06-04T05:21:07.872Z,20.52
2018-06-04T05:23:35.970Z,20.57
2018-06-04T05:26:04.077Z,20.63
2018-06-04T05:28:32.160Z,20.69
2018-06-04T05:31:00.352Z,20.74
2018-06-04T05:33:28.428Z,20.80
2018-06-04T05:35:56.492Z,20.86
2018-06-04T05:38:24.582Z,20.89
2018-06-04T05:40:52.715Z,20.99
2018-06-04T05:43:20.832Z,21.12
2018-06-04T05:45:48.974Z,21.22
2018-06-04T05:48:17.071Z,21.36
2018-06-04T05:50:45.147Z,21.49
2018-06-04T05:53:13.223Z,21.57
2018-06-04T05:55:41.302Z,21.59
2018-06-04T05:58:09.425Z,21.66
2018-06-04T06:00:37.510Z,21.89
2018-06-04T06:03:05.606Z,21.99
2018-06-04T06:05:33.768Z,22.04
2018-06-04T06:08:01.869Z,22.08
2018-06-04T06:10:29.976Z,22.14
2018-06-04T06:12:58.069Z,22.09
2018-06-04T06:15:26.232Z,22.23
2018-06-04T06:17:54.299Z,22.36
2018-06-04T06:20:22.763Z,22.44
2018-06-04T06:22:50.888Z,22.34
2018-06-04T06:25:18.985Z,22.35
2018-06-04T06:27:47.032Z,22.39
2018-06-04T06:30:15.104Z,22.48
2018-06-04T06:32:43.166Z,22.58
2018-06-04T06:35:11.222Z,22.65
2018-06-04T06:37:39.315Z,22.59
2018-06-04T06:40:07.426Z,22.60
2018-06-04T06:42:35.492Z,22.63
2018-06-04T06:45:03.571Z,22.71
2018-06-04T06:47:31.624Z,22.83
2018-06-04T06:49:59.715Z,22.85
2018-06-04T06:52:27.806Z,23.03
2018-06-04T06:54:55.900Z,22.99
2018-06-04T06:57:24.987Z,23.09
2018-06-04T06:59:53.079Z,23.13
2018-06-04T07:02:21.145Z,23.09
2018-06-04T07:04:49.251Z,23.01
2018-06-04T07:07:17.897Z,23.01
2018-06-04T07:09:46.001Z,23.06
2018-06-04T07:12:14.093Z,23.16
2018-06-04T07:14:42.198Z,23.15
2018-06-04T07:17:10.310Z,23.20
2018-06-04T07:19:38.379Z,23.26
2018-06-04T07:22:06.439Z,23.41
2018-06-04T07:24:34.501Z,23.46
2018-06-04T07:27:02.611Z,23.47
2018-06-04T07:29:30.686Z,23.54
2018-06-04T07:31:58.798Z,23.60
2018-06-04T07:34:26.876Z,23.63
2018-06-04T07:36:54.940Z,23.77
2018-06-04T07:39:23.011Z,23.78
2018-06-04T07:41:51.068Z,23.83
2018-06-04T07:44:19.178Z,24.00
2018-06-04T07:46:47.206Z,24.02
2018-06-04T07:49:15.280Z,24.00
2018-06-04T07:51:43.349Z,24.03
2018-06-04T07:54:11.534Z,24.09
2018-06-04T07:56:40.219Z,24.06
2018-06-04T07:59:08.321Z,24.10
2018-06-04T08:01:36.521Z,24.16
2018-06-04T08:04:04.585Z,24.17
2018-06-04T08:06:33.158Z,24.22
2018-06-04T08:09:01.225Z,24.29
2018-06-04T08:11:29.308Z,24.28
2018-06-04T08:13:57.443Z,24.27
2018-06-04T08:16:25.538Z,24.33
2018-06-04T08:18:53.653Z,24.40
2018-06-04T08:21:21.871Z,24.54
2018-06-04T08:23:52.967Z,24.56
2018-06-04T08:26:21.088Z,24.37
2018-06-04T08:28:49.163Z,24.60
2018-06-04T08:31:17.227Z,24.73
2018-06-04T08:33:45.376Z,24.75
2018-06-04T08:36:13.470Z,24.91
2018-06-04T08:38:41.536Z,25.00
2018-06-04T08:41:09.620Z,25.06
2018-06-04T08:43:37.685Z,25.08
2018-06-04T08:46:05.744Z,25.08
2018-06-04T08:48:33.804Z,25.11
2018-06-04T08:51:01.944Z,25.12
2018-06-04T08:53:36.560Z,25.16
2018-06-04T08:56:04.683Z,25.26
2018-06-04T08:58:32.783Z,25.23
2018-06-04T09:01:00.908Z,25.42
2018-06-04T09:03:28.979Z,25.49
2018-06-04T09:05:57.044Z,25.48
2018-06-04T09:08:25.111Z,25.61
2018-06-04T09:10:53.215Z,25.72
2018-06-04T09:13:21.345Z,25.68
2018-06-04T09:15:49.503Z,25.74
2018-06-04T09:18:17.561Z,25.76
2018-06-04T09:20:45.633Z,25.75
2018-06-04T09:23:13.724Z,25.89
2018-06-04T09:25:41.911Z,25.95
2018-06-04T09:28:10.166Z,25.99
2018-06-04T09:30:38.248Z,26.05
2018-06-04T09:33:06.341Z,26.09
2018-06-04T09:35:34.410Z,26.26
2018-06-04T09:38:02.487Z,26.35
2018-06-04T09:40:30.563Z,26.38
2018-06-04T09:42:58.636Z,26.38
2018-06-04T09:45:26.760Z,26.41
2018-06-04T09:47:54.823Z,26.45
2018-06-04T09:50:23.010Z,26.52
2018-06-04T09:52:51.063Z,26.64
2018-06-04T09:55:19.144Z,26.66
2018-06-04T09:57:47.192Z,26.70
2018-06-04T10:00:19.456Z,26.73
2018-06-04T10:02:47.533Z,26.88
2018-06-04T10:05:15.636Z,26.92
2018-06-04T10:07:43.742Z,26.91
2018-06-04T10:10:11.829Z,26.98
2018-06-04T10:12:39.900Z,26.97
2018-06-04T10:15:07.980Z,27.00
2018-06-04T10:17:36.509Z,26.99
2018-06-04T10:20:04.574Z,27.11
2018-06-04T10:22:32.686Z,27.15
2018-06-04T10:25:00.763Z,27.20
2018-06-04T10:27:28.875Z,27.12
2018-06-04T10:29:56.959Z,27.13
2018-06-04T10:32:25.083Z,27.20
2018-06-04T10:34:53.165Z,27.34
2018-06-04T10:37:21.263Z,27.31
2018-06-04T10:39:49.377Z,27.40
2018-06-04T10:42:18.194Z,27.53
2018-06-04T10:44:46.282Z,27.56
2018-06-04T10:47:14.387Z,27.65
2018-06-04T10:49:42.474Z,27.73
2018-06-04T10:52:10.572Z,27.75
2018-06-04T10:54:38.658Z,27.71
2018-06-04T10:57:06.756Z,27.71
2018-06-04T10:59:34.816Z,27.83
2018-06-04T11:02:02.904Z,27.91
2018-06-04T11:04:31.083Z,27.89
2018-06-04T11:06:59.194Z,28.08
2018-06-04T11:09:33.995Z,28.15
2018-06-04T11:12:02.095Z,28.24
2018-06-04T11:14:30.219Z,28.29
2018-06-04T11:16:58.319Z,28.28
2018-06-04T11:19:26.516Z,28.27
2018-06-04T11:21:54.599Z,28.34
2018-06-04T11:24:22.657Z,28.31
2018-06-04T11:26:50.747Z,28.29
2018-06-04T11:29:18.825Z,28.30
2018-06-04T11:31:46.922Z,28.28
2018-06-04T11:34:15.156Z,28.25
2018-06-04T11:36:43.224Z,28.22
2018-06-04T11:39:11.711Z,28.40
2018-06-04T11:41:39.802Z,28.47
2018-06-04T11:44:07.859Z,28.53
2018-06-04T11:46:35.936Z,28.54
2018-06-04T11:49:04.100Z,28.64
2018-06-04T11:51:32.232Z,28.68
2018-06-04T11:54:00.309Z,28.80
2018-06-04T11:56:28.403Z,28.88
2018-06-04T11:58:56.426Z,29.05
2018-06-04T12:01:24.537Z,29.01
2018-06-04T12:03:52.600Z,28.97
2018-06-04T12:06:20.697Z,28.82
2018-06-04T12:08:48.790Z,28.78
2018-06-04T12:11:16.890Z,28.70
2018-06-04T12:13:44.966Z,28.88
2018-06-04T12:16:13.035Z,28.98
2018-06-04T12:18:41.095Z,29.02
2018-06-04T12:21:09.179Z,28.77
2018-06-04T12:23:38.280Z,28.96
2018-06-04T12:26:06.368Z,29.17
2018-06-04T12:28:34.479Z,29.23
2018-06-04T12:31:02.596Z,29.16
2018-06-04T12:33:30.664Z,29.14
2018-06-04T12:35:58.722Z,29.11
2018-06-04T12:38:26.816Z,29.21
2018-06-04T12:40:54.914Z,29.19
2018-06-04T12:43:22.980Z,29.22
2018-06-04T12:45:51.064Z,29.25
2018-06-04T12:48:19.168Z,29.44
2018-06-04T12:50:47.255Z,29.46
2018-06-04T12:53:15.542Z,29.41
2018-06-04T12:55:43.603Z,29.55
2018-06-04T12:58:11.666Z,29.62
2018-06-04T13:00:39.755Z,29.54
2018-06-04T13:03:07.840Z,29.37
2018-06-04T13:05:35.927Z,29.22
2018-06-04T13:08:03.992Z,29.18
2018-06-04T13:10:32.371Z,29.16
2018-06-04T13:13:00.418Z,29.11
2018-06-04T13:15:28.499Z,29.17
2018-06-04T13:17:56.573Z,29.25
2018-06-04T13:20:24.646Z,29.39
2018-06-04T13:22:52.712Z,29.38
2018-06-04T13:25:20.762Z,29.30
2018-06-04T13:27:48.855Z,29.53
2018-06-04T13:30:16.905Z,29.70
2018-06-04T13:32:45.000Z,29.52
2018-06-04T13:35:14.313Z,29.54
2018-06-04T13:37:42.493Z,29.65
2018-06-04T13:40:10.560Z,29.68
2018-06-04T13:42:39.083Z,29.59
2018-06-04T13:45:07.172Z,29.54
2018-06-04T13:47:35.271Z,29.57
2018-06-04T13:50:03.352Z,29.68
2018-06-04T13:52:31.413Z,29.66
2018-06-04T13:54:59.475Z,29.63
2018-06-04T13:57:27.526Z,29.77
2018-06-04T13:59:55.632Z,29.64
2018-06-04T14:02:23.672Z,29.44
2018-06-04T14:04:51.761Z,29.66
2018-06-04T14:07:19.828Z,29.69
2018-06-04T14:09:47.909Z,29.70
2018-06-04T14:12:15.987Z,29.78
2018-06-04T14:14:44.098Z,29.87
2018-06-04T14:17:12.186Z,29.81
2018-06-04T14:19:40.238Z,29.89
2018-06-04T14:22:08.343Z,29.91
2018-06-04T14:24:36.427Z,29.82
2018-06-04T14:27:04.499Z,29.73
2018-06-04T14:29:32.600Z,29.76
2018-06-04T14:32:00.694Z,29.74
2018-06-04T14:34:28.791Z,29.60
2018-06-04T14:36:56.884Z,29.43
2018-06-04T14:39:25.234Z,29.33
2018-06-04T14:41:53.291Z,29.27
2018-06-04T14:44:21.389Z,29.34
2018-06-04T14:46:49.418Z,29.34
2018-06-04T14:49:17.490Z,29.29
2018-06-04T14:51:45.571Z,29.40
2018-06-04T14:54:13.648Z,29.50
2018-06-04T14:56:42.415Z,29.55
2018-06-04T14:59:10.513Z,29.55
2018-06-04T15:01:38.642Z,29.49
2018-06-04T15:04:06.758Z,29.54
2018-06-04T15:06:34.820Z,29.46
2018-06-04T15:09:02.957Z,29.51
2018-06-04T15:11:31.023Z,29.50
2018-06-04T15:13:59.078Z,29.54
2018-06-04T15:16:27.165Z,29.65
2018-06-04T15:18:55.214Z,29.71
2018-06-04T15:21:23.278Z,29.81
2018-06-04T15:23:51.356Z,29.83
2018-06-04T15:26:19.453Z,29.92
2018-06-04T15:28:47.589Z,29.81
2018-06-04T15:31:16.355Z,29.81
2018-06-04T15:33:44.424Z,29.79
2018-06-04T15:36:12.479Z,29.81
2018-06-04T15:38:40.535Z,29.92
2018-06-04T15:41:08.587Z,30.01
2018-06-04T15:43:36.660Z,29.92
2018-06-04T15:46:04.832Z,29.87
2018-06-04T15:48:32.941Z,29.85
2018-06-04T15:51:01.043Z,29.92
2018-06-04T15:53:29.189Z,29.89
2018-06-04T15:55:57.242Z,29.83
2018-06-04T15:58:25.336Z,29.77
2018-06-04T16:00:53.395Z,29.69
2018-06-04T16:03:21.491Z,29.62
2018-06-04T16:05:49.571Z,29.60
2018-06-04T16:08:18.637Z,29.57
2018-06-04T16:10:46.705Z,29.59
2018-06-04T16:13:14.779Z,29.61
2018-06-04T16:15:42.847Z,29.57
2018-06-04T16:18:10.914Z,29.71
2018-06-04T16:20:38.987Z,29.72
2018-06-04T16:23:07.070Z,29.70
2018-06-04T16:25:35.125Z,29.65
2018-06-04T16:28:03.234Z,29.69
2018-06-04T16:30:31.318Z,29.65
2018-06-04T16:32:59.431Z,29.62
2018-06-04T16:35:27.484Z,29.70
2018-06-04T16:38:03.049Z,29.86
2018-06-04T16:40:31.799Z,29.95
2018-06-04T16:43:01.781Z,30.19
2018-06-04T16:45:30.488Z,30.02
2018-06-04T16:47:59.821Z,29.99
2018-06-04T16:50:28.642Z,29.97
2018-06-04T16:52:58.522Z,30.10
2018-06-04T16:55:30.482Z,30.45
2018-06-04T16:58:01.388Z,30.76
2018-06-04T17:00:29.863Z,31.17
2018-06-04T17:02:59.171Z,31.25
2018-06-04T17:05:28.028Z,31.44
2018-06-04T17:08:01.451Z,31.80
2018-06-04T17:10:30.259Z,32.09
2018-06-04T17:13:02.852Z,32.32
2018-06-04T17:15:31.583Z,32.29
2018-06-04T17:17:59.996Z,32.38
2018-06-04T17:20:28.109Z,32.63
2018-06-04T17:22:56.167Z,32.87
2018-06-04T17:25:24.241Z,32.66
2018-06-04T17:27:52.316Z,32.96
2018-06-04T17:30:20.391Z,32.90
2018-06-04T17:32:48.466Z,32.94
2018-06-04T17:35:16.516Z,32.70
2018-06-04T17:37:44.609Z,32.43
2018-06-04T17:40:12.666Z,32.43
2018-06-04T17:42:40.725Z,32.28
2018-06-04T17:45:08.784Z,32.41
2018-06-04T17:47:36.858Z,31.93
2018-06-04T17:50:04.913Z,31.58
2018-06-04T17:52:32.984Z,31.30
2018-06-04T17:55:01.117Z,30.83
2018-06-04T17:57:29.579Z,30.50
2018-06-04T17:59:57.683Z,30.32
2018-06-04T18:02:25.824Z,30.10
2018-06-04T18:04:54.261Z,29.80
2018-06-04T18:07:22.643Z,29.80
2018-06-04T18:09:50.728Z,29.70
2018-06-04T18:12:18.799Z,29.63
2018-06-04T18:14:46.852Z,29.54
2018-06-04T18:17:14.941Z,29.45
2018-06-04T18:19:43.528Z,29.35
2018-06-04T18:22:11.663Z,29.10
2018-06-04T18:24:39.742Z,28.96
2018-06-04T18:27:07.835Z,28.76
2018-06-04T18:29:35.956Z,28.69
2018-06-04T18:32:04.124Z,28.50
2018-06-04T18:34:32.178Z,28.44
2018-06-04T18:37:00.300Z,28.52
2018-06-04T18:39:29.248Z,28.45
2018-06-04T18:41:57.356Z,28.29
2018-06-04T18:44:25.447Z,28.27
2018-06-04T18:46:53.543Z,28.16
2018-06-04T18:49:21.615Z,28.17
2018-06-04T18:51:49.713Z,28.02
2018-06-04T18:54:17.775Z,27.96
2018-06-04T18:56:45.834Z,27.98
2018-06-04T18:59:13.915Z,27.76
2018-06-04T19:01:42.308Z,27.68
2018-06-04T19:04:16.791Z,27.59
2018-06-04T19:06:44.904Z,27.61
2018-06-04T19:09:13.582Z,27.54
2018-06-04T19:11:41.600Z,27.55
2018-06-04T19:14:09.691Z,27.42
2018-06-04T19:16:37.777Z,27.32
2018-06-04T19:19:05.854Z,27.14
2018-06-04T19:21:33.960Z,27.06
2018-06-04T19:24:02.044Z,27.09
2018-06-04T19:26:30.191Z,26.96
2018-06-04T19:28:58.522Z,26.98
2018-06-04T19:31:26.628Z,26.91
2018-06-04T19:33:54.742Z,26.71
2018-06-04T19:36:22.812Z,26.73
2018-06-04T19:38:50.915Z,26.66
2018-06-04T19:41:18.990Z,26.55
2018-06-04T19:43:47.078Z,26.54
2018-06-04T19:46:15.135Z,26.52
2018-06-04T19:48:43.194Z,26.34
2018-06-04T19:51:11.279Z,26.40
2018-06-04T19:53:39.375Z,26.31
2018-06-04T19:56:08.418Z,26.23
2018-06-04T19:58:36.626Z,26.20
2018-06-04T20:01:04.735Z,26.19
2018-06-04T20:03:33.070Z,26.02
2018-06-04T20:06:03.489Z,25.88
2018-06-04T20:08:31.672Z,25.84
2018-06-04T20:11:30.064Z,25.85
2018-06-04T20:13:58.200Z,25.82
2018-06-04T20:16:26.412Z,25.73
2018-06-04T20:18:55.486Z,25.64
2018-06-04T20:21:23.825Z,25.65
2018-06-04T20:23:54.240Z,25.60
2018-06-04T20:26:28.095Z,25.53
2018-06-04T20:29:03.603Z,25.50
2018-06-04T20:32:06.925Z,25.56
2018-06-04T20:34:35.037Z,25.50
2018-06-04T20:37:03.220Z,25.52
2018-06-04T20:39:31.359Z,25.37
2018-06-04T20:41:59.569Z,25.39
2018-06-04T20:44:28.677Z,25.24
2018-06-04T20:46:56.875Z,25.18
2018-06-04T20:49:25.337Z,25.14
2018-06-04T20:51:53.547Z,25.12
2018-06-04T20:54:22.403Z,25.10
2018-06-04T20:56:50.784Z,25.10
2018-06-04T20:59:19.058Z,25.11
2018-06-04T21:01:47.166Z,25.04
2018-06-04T21:04:15.410Z,24.99
2018-06-04T21:06:43.559Z,24.91
2018-06-04T21:09:11.709Z,24.90
2018-06-04T21:11:39.839Z,24.84
2018-06-04T21:14:07.937Z,24.83
2018-06-04T21:16:36.149Z,24.77
2018-06-04T21:19:04.310Z,24.69
2018-06-04T21:21:32.573Z,24.71
2018-06-04T21:24:00.693Z,24.68
2018-06-04T21:26:28.851Z,24.76
2018-06-04T21:28:56.985Z,24.66
2018-06-04T21:31:25.210Z,24.70
2018-06-04T21:36:44.325Z,24.51
2018-06-04T21:39:12.552Z,24.48
2018-06-04T21:41:41.838Z,24.36
2018-06-04T21:44:21.280Z,24.29
2018-06-04T21:46:50.293Z,24.31
2018-06-04T21:49:20.054Z,24.22
2018-06-04T21:51:48.906Z,24.17
2018-06-04T21:54:17.728Z,24.22
2018-06-04T21:56:46.238Z,24.23
2018-06-04T21:59:14.557Z,24.14
2018-06-04T22:01:42.638Z,24.06
2018-06-04T22:04:10.757Z,24.13
2018-06-04T22:06:38.944Z,24.13
2018-06-04T22:09:08.248Z,24.04
2018-06-04T22:11:36.471Z,24.01
2018-06-04T22:14:05.520Z,23.98
2018-06-04T22:16:34.403Z,23.94
2018-06-04T22:19:02.539Z,23.87
2018-06-04T22:21:31.465Z,23.79
2018-06-04T22:24:02.620Z,23.83
2018-06-04T22:26:30.744Z,23.77
2018-06-04T22:28:59.047Z,23.74
2018-06-04T22:31:27.204Z,23.76
2018-06-04T22:34:02.679Z,23.69
2018-06-04T22:36:35.632Z,23.68
2018-06-04T22:39:04.445Z,23.65
2018-06-04T22:41:32.571Z,23.59
2018-06-04T22:44:00.635Z,23.59
2018-06-04T22:46:28.709Z,23.49
2018-06-04T22:48:56.755Z,23.51
2018-06-04T22:51:24.823Z,23.41
2018-06-04T22:53:52.944Z,23.34
2018-06-04T22:56:21.004Z,23.36
2018-06-04T22:58:49.064Z,23.29
2018-06-04T23:01:17.163Z,23.31
2018-06-04T23:03:45.224Z,23.25
2018-06-04T23:06:13.297Z,23.27
2018-06-04T23:08:41.355Z,23.32
2018-06-04T23:11:09.423Z,23.26
2018-06-04T23:13:37.501Z,23.16
2018-06-04T23:16:05.596Z,23.11
2018-06-04T23:18:33.864Z,23.03
2018-06-04T23:21:02.074Z,23.10
2018-06-04T23:23:30.122Z,23.05
2018-06-04T23:25:58.174Z,23.01
2018-06-04T23:28:26.231Z,23.06
2018-06-04T23:30:54.300Z,23.06
2018-06-04T23:33:22.360Z,23.03
2018-06-04T23:35:50.431Z,22.92
2018-06-04T23:38:18.499Z,22.88
2018-06-04T23:40:46.576Z,22.89
2018-06-04T23:43:14.643Z,22.92
2018-06-04T23:45:42.796Z,22.90
2018-06-04T23:48:10.898Z,22.86
2018-06-04T23:50:38.948Z,22.86
2018-06-04T23:53:07.022Z,22.81
2018-06-04T23:55:35.078Z,22.81
2018-06-04T23:58:03.138Z,22.78
